Time;durP1;ratioP1;P1;durP2;ratioP2;P2;SDS_P1;SDS_P2;PMS_P1;PMS_P2;Temp;Humidity;BMP_temperature;BMP_pressure;BME280_temperature;BME280_humidity;BME280_pressure;Samples;Min_cycle;Max_cycle;Signal;HPM_P1;HPM_P2
2024/04/03 00:00:26;;;;;;;1.98;0.50;;;;;;;10.89;37.71;93820.78;5070911;28;20520;-75
2024/04/03 00:02:51;;;;;;;1.45;0.50;;;;;;;11.13;37.50;93819.19;5070876;28;20075;-75
2024/04/03 00:05:17;;;;;;;1.00;0.50;;;;;;;11.21;36.95;93798.16;5071222;28;20037;-75
2024/04/03 00:07:42;;;;;;;0.40;0.40;;;;;;;11.07;37.20;93809.00;5071082;28;20515;-75
2024/04/03 00:10:08;;;;;;;0.40;0.40;;;;;;;10.83;37.56;93817.47;5071488;28;20035;-75
2024/04/03 00:12:34;;;;;;;1.13;0.80;;;;;;;10.53;38.18;93821.06;5070794;28;20048;-75
2024/04/03 00:14:59;;;;;;;1.00;0.50;;;;;;;10.62;38.48;93816.53;5069689;28;20484;-75
2024/04/03 00:17:25;;;;;;;0.73;0.40;;;;;;;10.55;38.64;93816.22;5071084;28;20143;-75
2024/04/03 00:19:50;;;;;;;0.57;0.50;;;;;;;10.29;39.24;93814.31;5071128;28;20056;-76
2024/04/03 00:22:16;;;;;;;0.50;0.50;;;;;;;10.28;39.31;93822.56;5070221;28;20016;-74
2024/04/03 00:24:41;;;;;;;0.77;0.65;;;;;;;10.40;39.14;93830.78;5071279;28;20029;-75
2024/04/03 00:27:06;;;;;;;0.80;0.57;;;;;;;10.29;39.38;93830.25;5070737;28;20044;-75
2024/04/03 00:29:32;;;;;;;0.60;0.40;;;;;;;10.32;39.13;93829.63;5070655;28;20040;-75
2024/04/03 00:31:57;;;;;;;0.75;0.50;;;;;;;10.27;39.22;93821.00;5070820;28;20041;-75
2024/04/03 00:34:23;;;;;;;0.50;0.40;;;;;;;10.43;39.00;93838.09;5070735;28;20052;-75
2024/04/03 00:36:49;;;;;;;1.27;0.68;;;;;;;10.50;38.96;93811.06;5071394;28;20031;-75
2024/04/03 00:39:14;;;;;;;0.98;0.50;;;;;;;10.97;38.24;93828.75;5070665;28;20489;-75
2024/04/03 00:41:39;;;;;;;0.73;0.50;;;;;;;10.58;38.94;93826.25;5070522;28;20043;-75
2024/04/03 00:44:05;;;;;;;3.20;0.88;;;;;;;10.85;38.46;93819.84;5070837;28;20048;-75
2024/04/03 00:46:30;;;;;;;0.50;0.50;;;;;;;10.93;38.10;93814.50;5071108;28;20040;-75
2024/04/03 00:48:56;;;;;;;0.50;0.50;;;;;;;11.13;38.26;93816.53;5074731;28;20521;-75
2024/04/03 00:51:23;;;;;;;0.50;0.50;;;;;;;10.67;38.49;93817.16;5074356;28;20048;-75
2024/04/03 00:53:49;;;;;;;0.75;0.50;;;;;;;10.62;38.83;93811.22;5074282;28;20060;-75
2024/04/03 00:56:15;;;;;;;0.40;0.40;;;;;;;10.40;39.27;93828.09;5074397;28;20071;-75
2024/04/03 00:58:41;;;;;;;1.10;0.50;;;;;;;10.21;39.53;93812.41;5074187;28;20087;-75
2024/04/03 01:01:06;;;;;;;0.77;0.50;;;;;;;10.33;39.42;93819.75;5075058;28;20477;-75
2024/04/03 01:03:31;;;;;;;0.50;0.50;;;;;;;10.57;39.30;93822.00;5074100;28;20036;-75
2024/04/03 01:06:04;;;;;;;2.63;0.60;;;;;;;10.72;39.08;93822.34;5074005;28;20098;-75
2024/04/03 01:08:30;;;;;;;0.60;0.60;;;;;;;10.75;39.00;93820.94;5074135;28;20052;-75
2024/04/03 01:10:57;;;;;;;2.10;0.68;;;;;;;10.93;38.53;93827.81;5074205;28;20044;-75
2024/04/03 01:13:23;;;;;;;2.63;0.70;;;;;;;10.85;38.59;93817.19;5074062;28;20516;-75
2024/04/03 01:15:58;;;;;;;0.88;0.50;;;;;;;10.61;38.92;93826.38;5074104;28;20460;-75
2024/04/03 01:18:24;;;;;;;3.08;0.70;;;;;;;10.56;38.90;93823.13;5074118;28;20032;-75
2024/04/03 01:20:49;;;;;;;0.95;0.50;;;;;;;10.60;38.67;93824.84;5073624;28;20059;-75
2024/04/03 01:23:14;;;;;;;0.60;0.50;;;;;;;10.66;38.81;93828.91;5073787;28;20060;-75
2024/04/03 01:25:40;;;;;;;1.65;0.60;;;;;;;10.46;38.66;93807.47;5073871;28;20044;-75
2024/04/03 01:28:05;;;;;;;1.55;0.52;;;;;;;10.66;38.28;93828.13;5074117;28;20033;-75
2024/04/03 01:30:31;;;;;;;2.05;0.93;;;;;;;10.51;38.92;93831.25;5073824;28;20041;-75
2024/04/03 01:32:56;;;;;;;0.57;0.50;;;;;;;10.60;39.41;93829.38;5073565;28;20401;-75
2024/04/03 01:35:21;;;;;;;1.20;0.50;;;;;;;10.46;39.46;93802.16;5073687;28;20043;-75
2024/04/03 01:37:47;;;;;;;1.00;0.50;;;;;;;10.77;38.45;93826.72;5073422;28;20028;-75
2024/04/03 01:40:12;;;;;;;1.23;0.75;;;;;;;10.54;38.71;93819.97;5073604;28;20085;-75
2024/04/03 01:42:37;;;;;;;0.55;0.40;;;;;;;10.55;38.88;93821.56;5073846;28;20024;-75
2024/04/03 01:45:04;;;;;;;3.17;0.50;;;;;;;10.05;39.74;93827.22;5073303;28;20566;-75
2024/04/03 01:47:29;;;;;;;2.72;0.95;;;;;;;9.70;40.66;93830.84;5073476;28;20037;-75
2024/04/03 01:49:55;;;;;;;0.52;0.50;;;;;;;9.71;40.69;93819.13;5072919;28;20045;-76
2024/04/03 01:52:21;;;;;;;2.00;0.85;;;;;;;9.66;41.04;93817.41;5073525;28;20078;-75
2024/04/03 01:54:49;;;;;;;0.60;0.60;;;;;;;9.75;40.09;93820.09;5073764;28;20158;-75
2024/04/03 01:57:15;;;;;;;1.20;0.60;;;;;;;9.63;40.53;93812.72;5072636;28;20048;-75
2024/04/03 01:59:41;;;;;;;0.63;0.50;;;;;;;9.59;40.32;93818.91;5072899;28;20039;-75
2024/04/03 02:02:07;;;;;;;0.50;0.50;;;;;;;9.45;40.38;93819.81;5073280;28;20105;-75
2024/04/03 02:04:32;;;;;;;1.55;0.70;;;;;;;9.78;39.98;93824.81;5073036;28;20324;-75
2024/04/03 02:06:57;;;;;;;0.40;0.40;;;;;;;9.89;39.55;93820.75;5073353;28;20529;-75
2024/04/03 02:09:23;;;;;;;1.40;0.40;;;;;;;10.10;38.79;93816.44;5072958;28;20048;-75
2024/04/03 02:11:48;;;;;;;1.58;0.50;;;;;;;10.16;38.71;93820.53;5072641;28;20494;-75
2024/04/03 02:14:13;;;;;;;0.43;0.43;;;;;;;9.94;38.87;93822.50;5072498;28;20067;-75
2024/04/03 02:16:43;;;;;;;0.73;0.73;;;;;;;10.00;38.80;93816.75;5072690;28;20044;-75
2024/04/03 02:19:08;;;;;;;0.50;0.50;;;;;;;10.35;38.55;93819.47;5073501;28;20024;-75
2024/04/03 02:21:35;;;;;;;0.68;0.50;;;;;;;10.06;37.67;93804.09;5072716;28;20430;-75
2024/04/03 02:24:01;;;;;;;0.52;0.50;;;;;;;10.33;37.34;93820.56;5072391;28;20524;-75
2024/04/03 02:26:26;;;;;;;2.00;0.50;;;;;;;10.58;36.92;93815.59;5072799;28;20032;-75
2024/04/03 02:28:51;;;;;;;0.40;0.40;;;;;;;10.58;36.75;93810.28;5072731;28;20408;-75
2024/04/03 02:31:17;;;;;;;0.60;0.60;;;;;;;10.78;36.71;93814.19;5072432;28;20029;-75
2024/04/03 02:33:44;;;;;;;1.38;0.52;;;;;;;10.86;36.04;93811.53;5072784;28;20108;-75
2024/04/03 02:36:11;;;;;;;0.43;0.40;;;;;;;11.02;36.37;93812.63;5072738;28;20036;-75
2024/04/03 02:38:36;;;;;;;0.52;0.40;;;;;;;11.01;35.67;93786.31;5072492;28;20036;-76
2024/04/03 02:41:02;;;;;;;0.45;0.40;;;;;;;11.27;35.66;93795.03;5072168;28;20123;-75
2024/04/03 02:43:27;;;;;;;1.00;0.50;;;;;;;11.52;35.88;93822.72;5072076;28;20036;-75
2024/04/03 02:45:54;;;;;;;0.40;0.40;;;;;;;11.07;36.68;93817.78;5072498;28;20118;-75
2024/04/03 02:48:19;;;;;;;1.90;0.45;;;;;;;10.80;37.21;93826.09;5072204;28;20075;-75
2024/04/03 02:50:46;;;;;;;2.28;0.60;;;;;;;10.99;36.67;93831.09;5072012;28;20033;-75
2024/04/03 02:53:12;;;;;;;2.15;0.45;;;;;;;11.02;37.21;93838.44;5072364;28;20115;-75
2024/04/03 02:55:37;;;;;;;1.77;0.60;;;;;;;11.16;36.80;93834.50;5072358;28;20717;-75
2024/04/03 02:58:03;;;;;;;1.10;0.50;;;;;;;11.39;36.46;93834.31;5072073;28;20405;-75
2024/04/03 03:00:28;;;;;;;1.48;0.50;;;;;;;11.07;36.63;93839.06;5071796;28;20048;-75
2024/04/03 03:02:53;;;;;;;1.55;0.50;;;;;;;11.02;37.17;93844.56;5071821;28;20029;-75
2024/04/03 03:05:19;;;;;;;1.50;0.55;;;;;;;11.18;36.82;93845.63;5071383;28;20044;-75
2024/04/03 03:07:44;;;;;;;0.40;0.40;;;;;;;11.23;36.95;93846.56;5071999;28;20409;-75
2024/04/03 03:10:09;;;;;;;4.20;0.85;;;;;;;11.20;37.27;93849.88;5071477;28;20028;-75
2024/04/03 03:12:35;;;;;;;2.50;0.60;;;;;;;11.10;37.77;93862.38;5072227;28;20070;-75
2024/04/03 03:15:00;;;;;;;1.13;0.60;;;;;;;11.21;37.60;93860.19;5071661;28;20717;-75
2024/04/03 03:17:26;;;;;;;1.55;0.60;;;;;;;11.04;37.73;93876.97;5071409;28;20040;-75
2024/04/03 03:19:51;;;;;;;1.15;0.70;;;;;;;11.10;37.89;93875.69;5071512;28;20127;-75
2024/04/03 03:22:16;;;;;;;1.27;0.60;;;;;;;11.21;38.29;93878.03;5071375;28;20021;-75
2024/04/03 03:24:42;;;;;;;0.75;0.75;;;;;;;10.92;38.39;93882.13;5072006;28;20028;-75
2024/04/03 03:27:07;;;;;;;6.15;0.70;;;;;;;10.72;38.95;93880.84;5071554;28;20490;-75
2024/04/03 03:29:32;;;;;;;4.35;0.80;;;;;;;10.47;39.93;93878.94;5071545;28;20409;-76
2024/04/03 03:31:58;;;;;;;2.30;0.63;;;;;;;10.72;39.00;93856.13;5070139;28;20124;-75
2024/04/03 03:34:23;;;;;;;0.82;0.50;;;;;;;10.37;40.47;93879.22;5071592;28;20020;-74
2024/04/03 03:36:48;;;;;;;1.52;0.70;;;;;;;10.18;40.83;93887.44;5071855;28;20496;-75
2024/04/03 03:39:14;;;;;;;1.30;0.68;;;;;;;10.40;40.88;93891.13;5071086;28;20087;-75
2024/04/03 03:41:39;;;;;;;1.95;0.80;;;;;;;10.52;40.35;93885.97;5071666;28;20036;-75
2024/04/03 03:44:04;;;;;;;2.13;0.65;;;;;;;10.36;40.77;93879.53;5071337;28;20499;-75
2024/04/03 03:46:30;;;;;;;0.75;0.50;;;;;;;10.44;40.51;93884.88;5071663;28;20051;-75
2024/04/03 03:54:23;;;;;;;9.68;0.80;;;;;;;10.21;40.80;93888.72;5071104;28;20097;-75
2024/04/03 03:56:48;;;;;;;1.90;0.60;;;;;;;9.58;42.18;93897.03;5070840;28;20436;-75
2024/04/03 03:59:13;;;;;;;3.60;0.82;;;;;;;9.63;42.13;93907.53;5071374;28;20040;-75
2024/04/03 04:01:39;;;;;;;3.03;0.60;;;;;;;9.74;41.73;93901.63;5071318;28;20508;-75
2024/04/03 04:04:04;;;;;;;0.60;0.60;;;;;;;9.56;42.32;93901.84;5071615;28;20024;-75
2024/04/03 04:06:29;;;;;;;4.15;1.00;;;;;;;9.39;41.38;93911.28;5070826;28;20036;-75
2024/04/03 04:08:55;;;;;;;0.68;0.55;;;;;;;9.32;42.32;93913.59;5070857;28;20048;-75
2024/04/03 04:11:20;;;;;;;0.73;0.60;;;;;;;9.52;41.39;93911.53;5070922;28;20042;-75
2024/04/03 04:13:48;;;;;;;0.73;0.50;;;;;;;9.63;41.62;93907.53;5070992;28;20490;-75
2024/04/03 04:16:14;;;;;;;3.63;0.70;;;;;;;9.83;41.05;93914.94;5071034;28;20051;-75
2024/04/03 04:18:39;;;;;;;2.83;0.95;;;;;;;9.78;41.32;93915.88;5071474;28;20418;-75
2024/04/03 04:21:04;;;;;;;0.60;0.60;;;;;;;9.97;41.05;93922.84;5072466;28;20036;-75
2024/04/03 04:23:30;;;;;;;1.55;0.60;;;;;;;10.28;40.62;93913.75;5074797;28;20037;-75
2024/04/03 04:26:03;;;;;;;1.17;0.70;;;;;;;10.28;40.50;93908.41;5074649;28;20493;-75
2024/04/03 04:28:29;;;;;;;2.35;0.80;;;;;;;10.20;41.21;93911.06;5075014;28;20028;-75
2024/04/03 04:30:57;;;;;;;1.80;0.40;;;;;;;10.43;41.13;93909.13;5075145;28;20024;-76
2024/04/03 04:33:22;;;;;;;0.55;0.47;;;;;;;10.31;41.21;93922.97;5074652;28;20112;-76
2024/04/03 04:35:53;;;;;;;0.60;0.60;;;;;;;9.99;42.71;93926.75;5074635;28;20112;-76
2024/04/03 04:38:18;;;;;;;0.70;0.60;;;;;;;10.19;42.10;93917.47;5074357;28;20056;-75
2024/04/03 04:41:02;;;;;;;1.50;0.80;;;;;;;9.97;41.50;93922.84;5074719;28;20083;-76
2024/04/03 04:43:29;;;;;;;0.82;0.70;;;;;;;10.15;41.55;93924.47;5074000;28;20051;-75
2024/04/03 04:46:02;;;;;;;0.52;0.50;;;;;;;10.62;40.47;93933.56;5074784;28;20103;-76
2024/04/03 04:48:30;;;;;;;0.50;0.50;;;;;;;10.91;39.07;93931.09;5074524;28;20040;-76
2024/04/03 04:51:04;;;;;;;1.75;0.82;;;;;;;11.12;39.07;93926.75;5074104;28;20040;-75
2024/04/03 04:53:29;;;;;;;2.40;0.80;;;;;;;11.17;38.49;93929.25;5074415;28;20036;-75
2024/04/03 04:56:01;;;;;;;3.88;0.70;;;;;;;11.30;38.94;93938.16;5072680;28;20378;-75
2024/04/03 04:58:27;;;;;;;5.22;1.42;;;;;;;11.29;39.05;93947.28;5072744;28;20040;-76
2024/04/03 05:01:06;;;;;;;7.78;1.45;;;;;;;11.27;39.38;93938.00;5073321;28;20123;-75
2024/04/03 05:03:32;;;;;;;2.80;1.25;;;;;;;11.38;39.03;93937.38;5073059;28;20311;-75
2024/04/03 05:05:58;;;;;;;2.28;0.80;;;;;;;11.54;38.90;93929.75;5073102;28;20398;-76
2024/04/03 05:08:24;;;;;;;2.17;0.70;;;;;;;11.39;38.74;93941.63;5073030;28;20486;-75
2024/04/03 05:10:56;;;;;;;3.22;0.77;;;;;;;11.25;39.09;93940.22;5072972;28;20039;-75
2024/04/03 05:13:26;;;;;;;1.42;0.70;;;;;;;11.45;38.68;93943.00;5073021;28;20070;-75
2024/04/03 05:15:52;;;;;;;2.50;0.63;;;;;;;11.18;39.19;93941.47;5073457;28;20032;-76
2024/04/03 05:18:17;;;;;;;2.42;0.70;;;;;;;11.17;39.04;93933.78;5072639;28;20055;-75
2024/04/03 05:20:43;;;;;;;3.10;0.93;;;;;;;11.22;39.05;93935.50;5072469;28;20033;-76
2024/04/03 05:23:09;;;;;;;7.78;0.80;;;;;;;11.69;39.37;93934.53;5073247;28;20658;-76
2024/04/03 05:25:34;;;;;;;7.22;1.52;;;;;;;11.51;39.83;93949.00;5073204;28;20405;-75
2024/04/03 05:28:00;;;;;;;4.93;2.33;;;;;;;11.33;41.17;93937.56;5074304;28;20027;-75
2024/04/03 05:30:25;;;;;;;14.05;2.60;;;;;;;11.16;40.87;93938.31;5073086;28;20547;-75
2024/04/03 05:32:51;;;;;;;13.15;3.05;;;;;;;11.26;41.21;93955.06;5072507;28;20071;-75
2024/04/03 05:35:17;;;;;;;7.13;2.97;;;;;;;11.19;41.32;93952.91;5073604;28;20032;-75
2024/04/03 05:37:46;;;;;;;10.25;2.95;;;;;;;11.52;41.49;93950.56;5073707;28;20119;-75
2024/04/03 05:40:12;;;;;;;6.65;2.65;;;;;;;11.68;40.42;93940.22;5073738;28;20458;-74
2024/04/03 05:42:38;;;;;;;5.00;2.40;;;;;;;11.80;40.19;93943.78;5073804;28;20111;-76
2024/04/03 05:45:04;;;;;;;7.28;2.88;;;;;;;11.85;39.96;93942.81;5072821;28;20090;-75
2024/04/03 05:47:31;;;;;;;5.80;2.67;;;;;;;11.90;40.26;93940.78;5073200;28;20143;-75
2024/04/03 05:49:56;;;;;;;10.57;3.67;;;;;;;11.90;40.08;93932.78;5072916;28;20043;-76
2024/04/03 05:52:22;;;;;;;6.30;2.65;;;;;;;12.04;39.91;93944.03;5072794;28;20428;-75
2024/04/03 05:54:48;;;;;;;11.00;4.72;;;;;;;11.94;39.55;93947.03;5073267;28;20078;-76
2024/04/03 05:57:18;;;;;;;18.23;4.25;;;;;;;11.87;39.90;93954.75;5072534;28;20052;-75
2024/04/03 05:59:45;;;;;;;9.93;2.72;;;;;;;11.89;39.97;93955.19;5072354;28;20062;-76
2024/04/03 06:02:12;;;;;;;10.82;2.95;;;;;;;11.93;39.86;93947.38;5072425;28;20043;-76
2024/04/03 06:04:38;;;;;;;10.25;2.95;;;;;;;12.03;39.76;93952.34;5072988;28;20032;-75
2024/04/03 06:07:04;;;;;;;11.20;2.92;;;;;;;12.11;39.97;93946.22;5073247;28;20017;-75
2024/04/03 06:09:30;;;;;;;7.20;2.42;;;;;;;12.16;39.00;93940.69;5072873;28;20035;-75
2024/04/03 06:11:56;;;;;;;8.35;2.95;;;;;;;12.23;39.44;93956.97;5072888;28;20044;-76
2024/04/03 06:14:21;;;;;;;5.75;2.63;;;;;;;12.23;38.73;93953.53;5072457;28;20032;-76
2024/04/03 06:16:47;;;;;;;5.93;3.03;;;;;;;12.24;39.15;93961.22;5072786;28;20078;-76
2024/04/03 06:19:13;;;;;;;7.45;3.08;;;;;;;12.03;39.18;93961.13;5072820;28;20466;-75
2024/04/03 06:21:39;;;;;;;8.18;2.50;;;;;;;12.06;39.17;93965.03;5072814;28;20370;-75
2024/04/03 06:24:06;;;;;;;10.32;2.47;;;;;;;12.21;40.06;93966.41;5072231;28;20047;-75
2024/04/03 06:26:32;;;;;;;10.98;2.45;;;;;;;12.49;39.72;93956.88;5072276;28;20115;-75
2024/04/03 06:28:59;;;;;;;8.73;2.53;;;;;;;12.51;39.40;93969.91;5071939;28;20040;-75
2024/04/03 06:31:24;;;;;;;7.97;2.28;;;;;;;12.50;38.54;93961.13;5071906;28;20024;-75
2024/04/03 06:33:52;;;;;;;7.95;2.53;;;;;;;12.80;37.97;93965.38;5072789;28;20028;-76
2024/04/03 06:36:18;;;;;;;10.52;2.10;;;;;;;12.84;37.75;93958.28;5072166;28;20533;-76
2024/04/03 06:38:43;;;;;;;9.57;2.03;;;;;;;12.92;38.51;93974.56;5072148;28;20025;-75
2024/04/03 06:41:08;;;;;;;10.48;2.10;;;;;;;13.07;37.63;93961.44;5071886;28;20102;-75
2024/04/03 06:43:34;;;;;;;7.53;2.28;;;;;;;13.08;38.33;93978.25;5071868;28;20036;-75
2024/04/03 06:45:59;;;;;;;13.48;2.83;;;;;;;13.08;37.07;93979.03;5072198;28;20024;-76
2024/04/03 06:48:25;;;;;;;14.48;2.90;;;;;;;13.19;37.58;93974.09;5071831;28;20045;-75
2024/04/03 06:50:52;;;;;;;8.50;2.03;;;;;;;13.29;37.62;93984.41;5071620;28;20116;-75
2024/04/03 06:53:17;;;;;;;8.52;2.13;;;;;;;13.27;37.15;93975.91;5071814;28;20036;-75
2024/04/03 06:56:02;;;;;;;9.10;2.50;;;;;;;13.03;36.78;93971.22;5071991;28;20089;-75
2024/04/03 06:58:35;;;;;;;11.97;2.80;;;;;;;13.02;37.34;93993.66;5071490;28;20100;-75
2024/04/03 07:01:01;;;;;;;12.40;2.65;;;;;;;12.73;37.83;93986.44;5072115;28;20269;-76
2024/04/03 07:03:29;;;;;;;6.85;2.25;;;;;;;13.09;37.42;93987.81;5071724;28;20032;-76
2024/04/03 07:05:54;;;;;;;8.88;2.80;;;;;;;13.20;37.09;93981.75;5071670;28;20037;-75
2024/04/03 07:08:20;;;;;;;17.92;2.50;;;;;;;12.79;37.41;93993.19;5069828;28;20029;-76
2024/04/03 07:10:45;;;;;;;7.03;2.20;;;;;;;12.46;37.98;93989.53;5071523;28;20066;-75
2024/04/03 07:13:10;;;;;;;7.53;4.18;;;;;;;12.76;37.96;93987.72;5071435;28;20470;-74
2024/04/03 07:15:36;;;;;;;11.95;2.75;;;;;;;13.37;37.33;93986.22;5071626;28;20087;-76
2024/04/03 07:18:01;;;;;;;7.22;2.40;;;;;;;13.42;37.43;93978.00;5071459;28;20044;-75
2024/04/03 07:20:31;;;;;;;10.85;2.88;;;;;;;13.43;37.67;93984.91;5071394;28;20405;-76
2024/04/03 07:22:57;;;;;;;7.65;2.67;;;;;;;13.53;37.08;93983.75;5071155;28;20052;-75
2024/04/03 07:25:24;;;;;;;10.80;2.08;;;;;;;13.17;38.08;93981.63;5071276;28;20070;-75
2024/04/03 07:27:50;;;;;;;6.25;1.67;;;;;;;13.64;36.96;93987.63;5071452;28;20016;-76
2024/04/03 07:30:16;;;;;;;8.55;2.00;;;;;;;13.70;36.65;93992.41;5070991;28;20045;-75
2024/04/03 07:32:41;;;;;;;8.35;2.28;;;;;;;13.50;37.00;93993.16;5071216;28;20544;-75
2024/04/03 07:35:08;;;;;;;9.02;2.28;;;;;;;13.77;36.44;93996.44;5071345;28;20078;-75
2024/04/03 07:37:39;;;;;;;4.20;2.00;;;;;;;13.90;36.15;93992.72;5071609;28;20044;-75
2024/04/03 07:40:10;;;;;;;7.15;2.03;;;;;;;13.93;35.55;93984.03;5071617;28;20024;-75
2024/04/03 07:42:40;;;;;;;8.20;2.03;;;;;;;13.65;36.01;93979.25;5071659;28;20048;-75
2024/04/03 07:45:07;;;;;;;2.22;1.58;;;;;;;13.58;36.76;93980.88;5070880;28;20446;-75
2024/04/03 07:47:34;;;;;;;6.72;1.75;;;;;;;13.57;36.73;93960.59;5070760;28;20044;-75
2024/04/03 07:50:00;;;;;;;4.63;1.70;;;;;;;13.61;36.21;93980.22;5070662;28;20221;-75
2024/04/03 07:52:26;;;;;;;6.43;1.95;;;;;;;13.15;36.64;93986.53;5071299;28;20020;-75
2024/04/03 07:54:52;;;;;;;5.13;2.22;;;;;;;13.19;36.74;93971.44;5071242;28;20458;-75
2024/04/03 07:57:17;;;;;;;4.95;1.23;;;;;;;13.00;35.68;93985.22;5070546;28;20049;-75
2024/04/03 07:59:43;;;;;;;4.45;1.40;;;;;;;13.50;35.36;93979.81;5070886;28;20041;-75
2024/04/03 08:02:09;;;;;;;6.10;1.50;;;;;;;13.50;34.96;93979.03;5070868;28;20145;-75
2024/04/03 08:04:36;;;;;;;2.20;1.00;;;;;;;13.90;34.38;93977.44;5070626;28;20052;-75
2024/04/03 08:07:02;;;;;;;8.75;1.80;;;;;;;13.65;34.22;93971.22;5071493;28;20146;-75
2024/04/03 08:09:32;;;;;;;6.05;1.60;;;;;;;13.63;35.55;93986.03;5070681;28;20114;-75
2024/04/03 08:12:00;;;;;;;0.75;0.43;;;;;;;13.05;35.08;93973.56;5070750;28;20060;-73
2024/04/03 08:14:25;;;;;;;2.33;0.90;;;;;;;13.30;33.41;93981.38;5070396;28;20041;-73
2024/04/03 08:16:51;;;;;;;0.93;0.60;;;;;;;12.83;34.07;93978.06;5070487;28;20047;-75
2024/04/03 08:19:17;;;;;;;3.42;1.60;;;;;;;12.64;34.75;93968.91;5070881;28;20030;-74
2024/04/03 08:21:44;;;;;;;1.52;0.55;;;;;;;13.14;34.73;93972.41;5071095;28;20051;-74
2024/04/03 08:24:10;;;;;;;2.60;0.73;;;;;;;13.02;34.56;93976.88;5070548;28;20498;-74
2024/04/03 08:26:36;;;;;;;3.97;1.00;;;;;;;13.31;33.77;93976.81;5070401;28;20115;-74
2024/04/03 08:29:02;;;;;;;3.05;0.90;;;;;;;13.33;33.52;93961.25;5070434;28;20128;-75
2024/04/03 08:31:28;;;;;;;3.95;0.80;;;;;;;13.43;33.41;93968.09;5070325;28;20461;-74
2024/04/03 08:33:53;;;;;;;1.15;0.80;;;;;;;13.36;33.23;93983.84;5070962;28;20028;-74
2024/04/03 08:36:19;;;;;;;3.78;1.02;;;;;;;13.13;34.23;93967.38;5070190;28;20032;-74
2024/04/03 08:38:44;;;;;;;1.88;0.68;;;;;;;13.06;33.96;93986.56;5069839;28;20039;-74
2024/04/03 08:41:10;;;;;;;2.42;0.57;;;;;;;13.29;33.06;93973.72;5070266;28;20036;-74
2024/04/03 08:43:35;;;;;;;1.98;0.40;;;;;;;12.97;32.77;93979.72;5070974;28;20040;-74
2024/04/03 08:46:01;;;;;;;4.38;0.80;;;;;;;12.64;34.54;93985.72;5070443;28;20439;-75
2024/04/03 08:48:27;;;;;;;2.75;0.70;;;;;;;12.73;34.49;93969.66;5070068;28;20034;-74
2024/04/03 08:50:53;;;;;;;2.92;0.90;;;;;;;12.82;33.68;93976.50;5068278;28;20033;-74
2024/04/03 08:53:20;;;;;;;0.70;0.55;;;;;;;13.16;32.78;93972.06;5070051;28;20043;-74
2024/04/03 08:55:47;;;;;;;1.52;1.00;;;;;;;13.53;33.16;93960.47;5070394;28;20039;-74
2024/04/03 08:58:14;;;;;;;3.45;0.70;;;;;;;13.48;32.47;93960.66;5070320;28;20089;-74
2024/04/03 09:00:40;;;;;;;7.05;0.77;;;;;;;13.49;31.25;93964.13;5070791;28;20099;-75
2024/04/03 09:03:05;;;;;;;4.32;1.00;;;;;;;13.28;31.42;93961.47;5070078;28;20466;-74
2024/04/03 09:05:31;;;;;;;3.42;0.88;;;;;;;13.66;30.31;93962.09;5070126;28;20109;-75
2024/04/03 09:08:07;;;;;;;1.88;0.60;;;;;;;13.55;29.62;93955.56;5071023;28;20436;-74
2024/04/03 09:10:50;;;;;;;1.92;0.60;;;;;;;14.10;30.91;93959.78;5073417;28;20043;-74
2024/04/03 09:13:16;;;;;;;4.25;0.90;;;;;;;13.83;29.89;93976.44;5074054;28;20031;-73
2024/04/03 09:15:42;;;;;;;3.75;0.80;;;;;;;13.45;30.38;93979.22;5074091;28;20017;-74
2024/04/03 09:18:13;;;;;;;5.30;1.60;;;;;;;13.49;30.38;93972.94;5073843;28;20037;-74
2024/04/03 09:20:40;;;;;;;3.38;0.90;;;;;;;13.57;31.19;93982.75;5073513;28;20043;-74
2024/04/03 09:23:08;;;;;;;1.55;1.33;;;;;;;13.39;30.19;93986.69;5072122;28;20440;-74
2024/04/03 09:25:35;;;;;;;12.32;1.00;;;;;;;13.47;31.16;93985.81;5073454;28;20110;-74
2024/04/03 09:28:06;;;;;;;6.25;1.13;;;;;;;13.73;30.87;93983.75;5073172;28;20035;-75
2024/04/03 09:30:36;;;;;;;2.55;0.90;;;;;;;14.15;30.84;93973.72;5073509;28;20040;-74
2024/04/03 09:33:04;;;;;;;2.20;1.13;;;;;;;14.09;29.62;93966.25;5073153;28;20549;-74
2024/04/03 09:35:34;;;;;;;1.83;0.60;;;;;;;14.11;30.43;93972.06;5073340;28;20432;-74
2024/04/03 09:38:00;;;;;;;3.25;0.70;;;;;;;14.10;29.62;93970.50;5073309;28;20044;-74
2024/04/03 09:40:30;;;;;;;3.03;0.90;;;;;;;14.32;30.21;93967.44;5073291;28;20012;-74
2024/04/03 09:42:57;;;;;;;5.60;0.90;;;;;;;13.99;29.31;93966.66;5073528;28;20412;-74
2024/04/03 09:45:26;;;;;;;3.50;0.90;;;;;;;13.70;30.26;93964.91;5073108;28;20040;-74
2024/04/03 09:48:12;;;;;;;3.33;1.05;;;;;;;13.71;29.41;93964.59;5073261;28;20033;-74
2024/04/03 09:50:44;;;;;;;2.95;0.65;;;;;;;13.77;28.45;93951.78;5073045;28;20056;-74
2024/04/03 09:53:19;;;;;;;2.63;0.70;;;;;;;13.34;28.78;93946.81;5072760;28;20102;-74
2024/04/03 09:55:46;;;;;;;3.40;0.70;;;;;;;13.52;29.52;93958.13;5072598;28;20043;-74
2024/04/03 09:58:26;;;;;;;1.55;0.70;;;;;;;13.79;30.08;93948.81;5072730;28;20161;-73
2024/04/03 10:00:57;;;;;;;3.75;0.70;;;;;;;13.91;29.50;93940.81;5073625;28;20525;-75
2024/04/03 10:03:26;;;;;;;5.53;0.90;;;;;;;13.66;28.83;93932.72;5072928;28;20052;-74
2024/04/03 10:06:02;;;;;;;4.80;0.80;;;;;;;13.52;29.14;93944.75;5072557;28;20509;-74
2024/04/03 10:08:35;;;;;;;2.55;1.38;;;;;;;13.60;29.05;93939.38;5072120;28;20032;-74
2024/04/03 10:11:11;;;;;;;7.35;0.77;;;;;;;13.85;30.00;93928.75;5072696;28;20043;-75
2024/04/03 10:13:46;;;;;;;1.00;0.50;;;;;;;13.87;29.10;93935.34;5072814;28;20036;-74
2024/04/03 10:16:14;;;;;;;0.70;0.50;;;;;;;13.85;29.44;93939.44;5072409;28;20238;-74
2024/04/03 10:18:42;;;;;;;0.68;0.47;;;;;;;13.99;28.46;93922.00;5072650;28;20538;-74
2024/04/03 10:21:12;;;;;;;3.35;1.08;;;;;;;14.26;29.05;93925.94;5072451;28;20033;-74
2024/04/03 10:23:41;;;;;;;6.28;0.88;;;;;;;14.13;27.42;93927.81;5072439;28;20508;-74
2024/04/03 10:26:11;;;;;;;2.53;0.50;;;;;;;14.07;28.18;93917.69;5072284;28;20304;-75
2024/04/03 10:28:39;;;;;;;2.72;0.70;;;;;;;14.19;28.51;93920.34;5072232;28;20094;-75
2024/04/03 10:31:06;;;;;;;0.47;0.40;;;;;;;14.48;28.17;93917.47;5072310;28;20024;-74
2024/04/03 10:33:31;;;;;;;1.08;0.50;;;;;;;14.48;27.73;93914.81;5072026;28;20043;-74
2024/04/03 10:35:57;;;;;;;2.63;0.80;;;;;;;14.45;28.84;93915.47;5072125;28;20028;-74
2024/04/03 10:38:24;;;;;;;2.45;0.60;;;;;;;14.50;28.61;93917.94;5072312;28;20064;-74
2024/04/03 10:40:49;;;;;;;2.30;0.60;;;;;;;14.60;27.98;93920.19;5072287;28;20039;-74
2024/04/03 10:43:15;;;;;;;3.38;0.80;;;;;;;14.47;28.29;93918.59;5072082;28;20440;-74
2024/04/03 10:45:47;;;;;;;0.73;0.40;;;;;;;14.37;27.51;93915.59;5072286;28;20021;-74
2024/04/03 10:48:12;;;;;;;2.22;1.10;;;;;;;14.06;28.26;93918.78;5071978;28;20094;-74
2024/04/03 10:50:38;;;;;;;1.58;0.60;;;;;;;14.22;27.92;93917.03;5072061;28;20044;-75
2024/04/03 10:53:08;;;;;;;1.38;0.50;;;;;;;14.57;28.16;93910.13;5071629;28;20512;-74
2024/04/03 10:55:36;;;;;;;0.65;0.40;;;;;;;14.80;29.41;93912.38;5071645;28;20508;-74
2024/04/03 10:58:02;;;;;;;4.80;0.52;;;;;;;15.18;28.60;93902.03;5071142;28;20048;-74
2024/04/03 11:00:34;;;;;;;3.35;0.60;;;;;;;14.94;27.09;93902.09;5069774;28;20047;-74
2024/04/03 11:03:04;;;;;;;4.43;1.50;;;;;;;14.70;27.27;93897.53;5069600;28;20120;-75
2024/04/03 11:05:29;;;;;;;2.17;0.75;;;;;;;14.86;27.54;93884.25;5070564;28;20070;-74
2024/04/03 11:07:56;;;;;;;3.70;0.60;;;;;;;14.72;27.73;93870.41;5070552;28;20036;-74
2024/04/03 11:10:23;;;;;;;2.88;0.80;;;;;;;14.72;27.47;93849.00;5070317;28;20033;-74
2024/04/03 11:12:48;;;;;;;4.18;0.65;;;;;;;14.45;28.37;93832.53;5071343;28;20032;-74
2024/04/03 11:15:21;;;;;;;1.70;0.73;;;;;;;14.72;27.22;93857.81;5071740;28;20067;-74
2024/04/03 11:17:47;;;;;;;1.42;0.63;;;;;;;14.95;28.47;93863.47;5071875;28;20033;-74
2024/04/03 11:20:12;;;;;;;1.05;0.50;;;;;;;15.24;27.57;93862.38;5070836;28;20139;-74
2024/04/03 11:22:38;;;;;;;2.03;0.52;;;;;;;15.58;26.62;93861.03;5071228;28;20046;-74
2024/04/03 11:25:07;;;;;;;0.52;0.40;;;;;;;15.82;29.00;93855.53;5071185;28;20021;-75
2024/04/03 11:27:33;;;;;;;2.58;0.50;;;;;;;15.71;27.71;93841.84;5070840;28;20093;-74
2024/04/03 11:29:59;;;;;;;4.18;0.70;;;;;;;15.67;26.90;93837.53;5070323;28;20041;-74
2024/04/03 11:32:25;;;;;;;5.82;0.80;;;;;;;15.51;27.19;93834.81;5070495;28;20056;-74
2024/04/03 11:34:51;;;;;;;5.50;0.68;;;;;;;15.41;27.96;93830.69;5071239;28;20064;-74
2024/04/03 11:37:16;;;;;;;1.42;0.45;;;;;;;15.26;26.77;93822.63;5071401;28;20493;-73